sensor_id;sensor_type;location;lat;lon;timestamp;pressure;altitude;pressure_sealevel;temperature;humidity
11413;BME280;5762;43.256;26.960;2023-10-09T00:00:57;100208.41;;;11.49;100.00
11413;BME280;5762;43.256;26.960;2023-10-09T00:03:27;100210.09;;;11.45;100.00
11413;BME280;5762;43.256;26.960;2023-10-09T00:05:56;100214.16;;;11.45;100.00
11413;BME280;5762;43.256;26.960;2023-10-09T00:08:25;100210.70;;;11.42;100.00
11413;BME280;5762;43.256;26.960;2023-10-09T00:11:01;100212.77;;;11.48;100.00
11413;BME280;5762;43.256;26.960;2023-10-09T00:13:43;100202.40;;;11.52;100.00
11413;BME280;5762;43.256;26.960;2023-10-09T00:16:20;100198.89;;;11.52;100.00
11413;BME280;5762;43.256;26.960;2023-10-09T00:19:05;100204.30;;;11.52;100.00
11413;BME280;5762;43.256;26.960;2023-10-09T00:21:51;100204.38;;;11.47;100.00
11413;BME280;5762;43.256;26.960;2023-10-09T00:24:19;100189.82;;;11.43;100.00
11413;BME280;5762;43.256;26.960;2023-10-09T00:26:51;100198.59;;;11.53;100.00
11413;BME280;5762;43.256;26.960;2023-10-09T00:29:20;100202.14;;;11.51;100.00
11413;BME280;5762;43.256;26.960;2023-10-09T00:31:51;100207.02;;;11.52;100.00
11413;BME280;5762;43.256;26.960;2023-10-09T00:34:23;100212.11;;;11.56;100.00
11413;BME280;5762;43.256;26.960;2023-10-09T00:36:52;100214.24;;;11.59;100.00
11413;BME280;5762;43.256;26.960;2023-10-09T00:39:21;100209.44;;;11.53;100.00
11413;BME280;5762;43.256;26.960;2023-10-09T00:41:50;100202.27;;;11.62;100.00
11413;BME280;5762;43.256;26.960;2023-10-09T00:44:19;100202.55;;;11.61;100.00
11413;BME280;5762;43.256;26.960;2023-10-09T00:46:48;100194.20;;;11.57;100.00
11413;BME280;5762;43.256;26.960;2023-10-09T00:49:18;100200.43;;;11.58;100.00
11413;BME280;5762;43.256;26.960;2023-10-09T00:51:48;100202.81;;;11.62;100.00
11413;BME280;5762;43.256;26.960;2023-10-09T00:54:18;100211.78;;;11.60;100.00
11413;BME280;5762;43.256;26.960;2023-10-09T00:56:47;100217.10;;;11.67;100.00
11413;BME280;5762;43.256;26.960;2023-10-09T00:59:16;100216.84;;;11.66;100.00
11413;BME280;5762;43.256;26.960;2023-10-09T01:01:45;100227.98;;;11.65;100.00
11413;BME280;5762;43.256;26.960;2023-10-09T01:04:24;100234.77;;;11.65;100.00
11413;BME280;5762;43.256;26.960;2023-10-09T01:06:56;100234.73;;;11.67;100.00
11413;BME280;5762;43.256;26.960;2023-10-09T01:09:32;100224.10;;;11.71;100.00
11413;BME280;5762;43.256;26.960;2023-10-09T01:12:06;100232.50;;;11.72;100.00
11413;BME280;5762;43.256;26.960;2023-10-09T01:14:35;100234.41;;;11.71;100.00
11413;BME280;5762;43.256;26.960;2023-10-09T01:17:04;100236.45;;;11.80;100.00
11413;BME280;5762;43.256;26.960;2023-10-09T01:19:35;100241.39;;;11.78;100.00
11413;BME280;5762;43.256;26.960;2023-10-09T01:22:05;100243.56;;;11.78;100.00
11413;BME280;5762;43.256;26.960;2023-10-09T01:24:39;100251.15;;;11.76;100.00
11413;BME280;5762;43.256;26.960;2023-10-09T01:27:09;100255.41;;;11.82;100.00
11413;BME280;5762;43.256;26.960;2023-10-09T01:29:40;100262.70;;;11.84;100.00
11413;BME280;5762;43.256;26.960;2023-10-09T01:32:09;100267.80;;;11.88;100.00
11413;BME280;5762;43.256;26.960;2023-10-09T01:34:38;100271.87;;;11.88;100.00
11413;BME280;5762;43.256;26.960;2023-10-09T01:37:11;100258.89;;;11.85;100.00
11413;BME280;5762;43.256;26.960;2023-10-09T01:39:46;100255.15;;;11.81;100.00
11413;BME280;5762;43.256;26.960;2023-10-09T01:42:15;100274.49;;;11.74;100.00
11413;BME280;5762;43.256;26.960;2023-10-09T01:45:01;100277.20;;;11.74;100.00
11413;BME280;5762;43.256;26.960;2023-10-09T01:47:38;100272.03;;;11.75;100.00
11413;BME280;5762;43.256;26.960;2023-10-09T01:50:06;100293.22;;;11.73;100.00
11413;BME280;5762;43.256;26.960;2023-10-09T01:52:37;100312.45;;;11.77;100.00
11413;BME280;5762;43.256;26.960;2023-10-09T01:55:06;100308.39;;;11.77;100.00
11413;BME280;5762;43.256;26.960;2023-10-09T01:57:36;100314.52;;;11.83;100.00
11413;BME280;5762;43.256;26.960;2023-10-09T02:00:05;100326.82;;;11.75;100.00
11413;BME280;5762;43.256;26.960;2023-10-09T02:02:35;100337.18;;;11.70;100.00
11413;BME280;5762;43.256;26.960;2023-10-09T02:05:05;100337.98;;;11.71;100.00
11413;BME280;5762;43.256;26.960;2023-10-09T02:07:43;100334.47;;;11.70;100.00
11413;BME280;5762;43.256;26.960;2023-10-09T02:10:13;100329.86;;;11.71;100.00
11413;BME280;5762;43.256;26.960;2023-10-09T02:12:55;100334.76;;;11.69;100.00
11413;BME280;5762;43.256;26.960;2023-10-09T02:15:30;100339.95;;;11.65;100.00
11413;BME280;5762;43.256;26.960;2023-10-09T02:18:14;100333.27;;;11.58;100.00
11413;BME280;5762;43.256;26.960;2023-10-09T02:20:46;100341.97;;;11.55;100.00
11413;BME280;5762;43.256;26.960;2023-10-09T02:23:16;100340.94;;;11.51;100.00
11413;BME280;5762;43.256;26.960;2023-10-09T02:25:45;100349.33;;;11.52;100.00
11413;BME280;5762;43.256;26.960;2023-10-09T02:28:14;100356.45;;;11.45;100.00
11413;BME280;5762;43.256;26.960;2023-10-09T02:30:45;100346.16;;;11.45;100.00
11413;BME280;5762;43.256;26.960;2023-10-09T02:33:17;100341.83;;;11.43;100.00
11413;BME280;5762;43.256;26.960;2023-10-09T02:35:46;100340.04;;;11.36;100.00
11413;BME280;5762;43.256;26.960;2023-10-09T02:38:15;100348.17;;;11.36;100.00
11413;BME280;5762;43.256;26.960;2023-10-09T02:40:44;100353.41;;;11.28;100.00
11413;BME280;5762;43.256;26.960;2023-10-09T02:43:32;100350.46;;;11.24;100.00
11413;BME280;5762;43.256;26.960;2023-10-09T02:46:02;100361.56;;;11.25;100.00
11413;BME280;5762;43.256;26.960;2023-10-09T02:48:50;100375.70;;;11.20;100.00
11413;BME280;5762;43.256;26.960;2023-10-09T02:51:19;100389.52;;;11.21;100.00
11413;BME280;5762;43.256;26.960;2023-10-09T02:56:24;100379.77;;;11.20;100.00
11413;BME280;5762;43.256;26.960;2023-10-09T02:58:52;100407.42;;;11.17;100.00
11413;BME280;5762;43.256;26.960;2023-10-09T03:01:21;100407.72;;;11.15;100.00
11413;BME280;5762;43.256;26.960;2023-10-09T03:03:50;100407.14;;;11.18;100.00
11413;BME280;5762;43.256;26.960;2023-10-09T03:06:18;100413.66;;;11.17;100.00
11413;BME280;5762;43.256;26.960;2023-10-09T03:08:48;100426.11;;;11.18;100.00
11413;BME280;5762;43.256;26.960;2023-10-09T03:11:17;100431.00;;;11.16;100.00
11413;BME280;5762;43.256;26.960;2023-10-09T03:13:46;100434.78;;;11.18;100.00
11413;BME280;5762;43.256;26.960;2023-10-09T03:16:14;100434.80;;;11.15;100.00
11413;BME280;5762;43.256;26.960;2023-10-09T03:18:52;100422.66;;;11.10;100.00
11413;BME280;5762;43.256;26.960;2023-10-09T03:21:20;100418.57;;;11.13;100.00
11413;BME280;5762;43.256;26.960;2023-10-09T03:23:49;100419.36;;;11.16;100.00
11413;BME280;5762;43.256;26.960;2023-10-09T03:26:18;100415.02;;;11.17;100.00
11413;BME280;5762;43.256;26.960;2023-10-09T03:28:47;100417.50;;;11.11;100.00
11413;BME280;5762;43.256;26.960;2023-10-09T03:31:16;100413.17;;;11.10;100.00
11413;BME280;5762;43.256;26.960;2023-10-09T03:33:45;100416.50;;;11.04;100.00
11413;BME280;5762;43.256;26.960;2023-10-09T03:36:14;100420.56;;;11.04;100.00
11413;BME280;5762;43.256;26.960;2023-10-09T03:38:43;100425.48;;;11.00;100.00
11413;BME280;5762;43.256;26.960;2023-10-09T03:41:12;100430.37;;;10.98;100.00
11413;BME280;5762;43.256;26.960;2023-10-09T03:43:41;100441.22;;;10.95;100.00
11413;BME280;5762;43.256;26.960;2023-10-09T03:46:10;100446.92;;;10.94;100.00
11413;BME280;5762;43.256;26.960;2023-10-09T03:48:42;100450.70;;;10.95;100.00
11413;BME280;5762;43.256;26.960;2023-10-09T03:51:12;100454.55;;;10.87;100.00
11413;BME280;5762;43.256;26.960;2023-10-09T03:53:41;100453.50;;;10.83;100.00
11413;BME280;5762;43.256;26.960;2023-10-09T03:56:10;100453.78;;;10.81;100.00
11413;BME280;5762;43.256;26.960;2023-10-09T03:58:42;100449.17;;;10.82;100.00
11413;BME280;5762;43.256;26.960;2023-10-09T04:01:14;100450.26;;;10.81;100.00
11413;BME280;5762;43.256;26.960;2023-10-09T04:03:53;100466.52;;;10.78;100.00
11413;BME280;5762;43.256;26.960;2023-10-09T04:06:24;100465.96;;;10.81;100.00
11413;BME280;5762;43.256;26.960;2023-10-09T04:09:06;100465.12;;;10.86;100.00
11413;BME280;5762;43.256;26.960;2023-10-09T04:11:52;100469.47;;;10.84;100.00
11413;BME280;5762;43.256;26.960;2023-10-09T04:14:41;100481.39;;;10.81;100.00
11413;BME280;5762;43.256;26.960;2023-10-09T04:17:10;100482.77;;;10.78;100.00
11413;BME280;5762;43.256;26.960;2023-10-09T04:19:51;100490.34;;;10.79;100.00
11413;BME280;5762;43.256;26.960;2023-10-09T04:22:39;100482.84;;;10.70;100.00
11413;BME280;5762;43.256;26.960;2023-10-09T04:25:25;100483.15;;;10.64;100.00
11413;BME280;5762;43.256;26.960;2023-10-09T04:27:59;100490.50;;;10.56;100.00
11413;BME280;5762;43.256;26.960;2023-10-09T04:30:36;100497.81;;;10.55;100.00
11413;BME280;5762;43.256;26.960;2023-10-09T04:33:05;100515.41;;;10.53;100.00
11413;BME280;5762;43.256;26.960;2023-10-09T04:35:34;100523.79;;;10.56;100.00
11413;BME280;5762;43.256;26.960;2023-10-09T04:38:03;100520.81;;;10.58;100.00
11413;BME280;5762;43.256;26.960;2023-10-09T04:40:34;100518.94;;;10.53;100.00
11413;BME280;5762;43.256;26.960;2023-10-09T04:43:08;100531.11;;;10.53;100.00
11413;BME280;5762;43.256;26.960;2023-10-09T04:45:37;100539.21;;;10.58;100.00
11413;BME280;5762;43.256;26.960;2023-10-09T04:48:19;100542.73;;;10.56;100.00
11413;BME280;5762;43.256;26.960;2023-10-09T04:50:49;100534.08;;;10.54;100.00
11413;BME280;5762;43.256;26.960;2023-10-09T04:53:34;100533.01;;;10.53;100.00
11413;BME280;5762;43.256;26.960;2023-10-09T04:56:03;100537.33;;;10.56;100.00
11413;BME280;5762;43.256;26.960;2023-10-09T04:58:35;100526.23;;;10.55;100.00
11413;BME280;5762;43.256;26.960;2023-10-09T05:01:04;100528.41;;;10.53;100.00
11413;BME280;5762;43.256;26.960;2023-10-09T05:03:33;100537.06;;;10.53;100.00
11413;BME280;5762;43.256;26.960;2023-10-09T05:06:10;100529.23;;;10.51;100.00
11413;BME280;5762;43.256;26.960;2023-10-09T05:08:48;100539.77;;;10.53;100.00
11413;BME280;5762;43.256;26.960;2023-10-09T05:11:17;100542.73;;;10.56;100.00
11413;BME280;5762;43.256;26.960;2023-10-09T05:14:03;100543.30;;;10.51;100.00
11413;BME280;5762;43.256;26.960;2023-10-09T05:16:40;100547.89;;;10.53;100.00
11413;BME280;5762;43.256;26.960;2023-10-09T05:19:12;100558.98;;;10.56;100.00
11413;BME280;5762;43.256;26.960;2023-10-09T05:21:41;100556.23;;;10.64;100.00
11413;BME280;5762;43.256;26.960;2023-10-09T05:24:10;100566.44;;;10.77;100.00
11413;BME280;5762;43.256;26.960;2023-10-09T05:26:40;100571.80;;;10.90;100.00
11413;BME280;5762;43.256;26.960;2023-10-09T05:29:16;100583.95;;;10.97;100.00
11413;BME280;5762;43.256;26.960;2023-10-09T05:32:00;100588.79;;;11.03;100.00
11413;BME280;5762;43.256;26.960;2023-10-09T05:34:43;100593.66;;;11.03;100.00
11413;BME280;5762;43.256;26.960;2023-10-09T05:37:29;100613.75;;;10.95;100.00
11413;BME280;5762;43.256;26.960;2023-10-09T05:40:01;100624.31;;;10.94;100.00
11413;BME280;5762;43.256;26.960;2023-10-09T05:42:34;100632.40;;;11.04;100.00
11413;BME280;5762;43.256;26.960;2023-10-09T05:45:10;100638.51;;;11.22;100.00
11413;BME280;5762;43.256;26.960;2023-10-09T05:47:44;100642.27;;;11.29;100.00
11413;BME280;5762;43.256;26.960;2023-10-09T05:50:31;100644.97;;;11.31;100.00
11413;BME280;5762;43.256;26.960;2023-10-09T05:53:02;100648.75;;;11.33;100.00
11413;BME280;5762;43.256;26.960;2023-10-09T05:55:37;100657.72;;;11.28;100.00
11413;BME280;5762;43.256;26.960;2023-10-09T05:58:09;100667.45;;;11.32;100.00
11413;BME280;5762;43.256;26.960;2023-10-09T06:00:54;100674.22;;;11.34;100.00
11413;BME280;5762;43.256;26.960;2023-10-09T06:03:40;100677.37;;;11.47;100.00
11413;BME280;5762;43.256;26.960;2023-10-09T06:06:24;100691.19;;;11.48;100.00
11413;BME280;5762;43.256;26.960;2023-10-09T06:09:03;100692.84;;;11.43;100.00
11413;BME280;5762;43.256;26.960;2023-10-09T06:11:41;100684.02;;;11.25;100.00
11413;BME280;5762;43.256;26.960;2023-10-09T06:14:11;100690.23;;;11.28;100.00
11413;BME280;5762;43.256;26.960;2023-10-09T06:16:40;100684.79;;;11.33;100.00
11413;BME280;5762;43.256;26.960;2023-10-09T06:19:15;100681.44;;;11.47;100.00
11413;BME280;5762;43.256;26.960;2023-10-09T06:21:40;100687.33;;;11.59;100.00
11413;BME280;5762;43.256;26.960;2023-10-09T06:24:25;100683.53;;;11.60;100.00
11413;BME280;5762;43.256;26.960;2023-10-09T06:26:54;100698.47;;;11.55;100.00
11413;BME280;5762;43.256;26.960;2023-10-09T06:29:26;100695.44;;;11.64;100.00
11413;BME280;5762;43.256;26.960;2023-10-09T06:32:08;100698.41;;;11.65;100.00
11413;BME280;5762;43.256;26.960;2023-10-09T06:34:47;100697.57;;;11.69;100.00
11413;BME280;5762;43.256;26.960;2023-10-09T06:37:15;100700.28;;;11.69;100.00
11413;BME280;5762;43.256;26.960;2023-10-09T06:39:47;100698.45;;;11.60;100.00
11413;BME280;5762;43.256;26.960;2023-10-09T06:42:28;100702.65;;;11.81;100.00
11413;BME280;5762;43.256;26.960;2023-10-09T06:45:06;100705.82;;;11.93;100.00
11413;BME280;5762;43.256;26.960;2023-10-09T06:47:35;100718.03;;;11.93;100.00
11413;BME280;5762;43.256;26.960;2023-10-09T06:50:11;100720.70;;;11.98;100.00
11413;BME280;5762;43.256;26.960;2023-10-09T06:52:49;100719.88;;;12.00;100.00
11413;BME280;5762;43.256;26.960;2023-10-09T06:55:36;100719.05;;;12.02;100.00
11413;BME280;5762;43.256;26.960;2023-10-09T06:58:05;100718.11;;;12.15;100.00
11413;BME280;5762;43.256;26.960;2023-10-09T07:00:40;100728.87;;;12.27;100.00
11413;BME280;5762;43.256;26.960;2023-10-09T07:03:20;100727.49;;;12.30;100.00
11413;BME280;5762;43.256;26.960;2023-10-09T07:05:50;100718.37;;;12.16;100.00
11413;BME280;5762;43.256;26.960;2023-10-09T07:08:28;100718.94;;;12.47;100.00
11413;BME280;5762;43.256;26.960;2023-10-09T07:11:00;100732.95;;;12.54;100.00
11413;BME280;5762;43.256;26.960;2023-10-09T07:13:27;100729.03;;;12.41;100.00
11413;BME280;5762;43.256;26.960;2023-10-09T07:15:56;100725.41;;;12.48;100.00
11413;BME280;5762;43.256;26.960;2023-10-09T07:18:38;100722.74;;;12.46;100.00
11413;BME280;5762;43.256;26.960;2023-10-09T07:21:12;100731.34;;;12.53;100.00
11413;BME280;5762;43.256;26.960;2023-10-09T07:23:39;100735.98;;;12.50;100.00
11413;BME280;5762;43.256;26.960;2023-10-09T07:26:08;100731.73;;;12.67;100.00
11413;BME280;5762;43.256;26.960;2023-10-09T07:28:47;100734.14;;;12.71;100.00
11413;BME280;5762;43.256;26.960;2023-10-09T07:31:16;100735.31;;;12.87;100.00
11413;BME280;5762;43.256;26.960;2023-10-09T07:33:45;100736.42;;;12.86;100.00
11413;BME280;5762;43.256;26.960;2023-10-09T07:36:15;100736.55;;;12.75;100.00
11413;BME280;5762;43.256;26.960;2023-10-09T07:38:44;100739.55;;;12.98;100.00
11413;BME280;5762;43.256;26.960;2023-10-09T07:41:13;100746.38;;;13.19;100.00
11413;BME280;5762;43.256;26.960;2023-10-09T07:43:42;100735.15;;;13.26;100.00
11413;BME280;5762;43.256;26.960;2023-10-09T07:46:15;100730.11;;;13.38;100.00
11413;BME280;5762;43.256;26.960;2023-10-09T07:49:04;100720.45;;;13.27;100.00
11413;BME280;5762;43.256;26.960;2023-10-09T07:51:36;100712.11;;;13.42;100.00
11413;BME280;5762;43.256;26.960;2023-10-09T07:54:04;100720.33;;;13.56;100.00
11413;BME280;5762;43.256;26.960;2023-10-09T07:56:41;100716.28;;;13.53;100.00
11413;BME280;5762;43.256;26.960;2023-10-09T07:59:14;100718.45;;;13.54;100.00
11413;BME280;5762;43.256;26.960;2023-10-09T08:01:44;100714.88;;;13.56;100.00
11413;BME280;5762;43.256;26.960;2023-10-09T08:04:23;100709.73;;;13.54;100.00
11413;BME280;5762;43.256;26.960;2023-10-09T08:07:07;100700.04;;;13.67;100.00
11413;BME280;5762;43.256;26.960;2023-10-09T08:09:55;100694.78;;;13.89;100.00
11413;BME280;5762;43.256;26.960;2023-10-09T08:12:40;100689.70;;;13.85;100.00
11413;BME280;5762;43.256;26.960;2023-10-09T08:15:11;100674.05;;;13.77;100.00
11413;BME280;5762;43.256;26.960;2023-10-09T08:17:46;100682.51;;;14.08;100.00
11413;BME280;5762;43.256;26.960;2023-10-09T08:20:18;100685.36;;;14.17;100.00
11413;BME280;5762;43.256;26.960;2023-10-09T08:22:47;100684.98;;;14.07;100.00
11413;BME280;5762;43.256;26.960;2023-10-09T08:25:20;100685.75;;;14.40;100.00
11413;BME280;5762;43.256;26.960;2023-10-09T08:30:27;100680.84;;;14.56;100.00
11413;BME280;5762;43.256;26.960;2023-10-09T08:32:56;100676.75;;;14.56;100.00
11413;BME280;5762;43.256;26.960;2023-10-09T08:35:31;100677.27;;;14.44;100.00
11413;BME280;5762;43.256;26.960;2023-10-09T08:38:01;100679.54;;;14.37;100.00
11413;BME280;5762;43.256;26.960;2023-10-09T08:40:38;100682.16;;;14.45;100.00
11413;BME280;5762;43.256;26.960;2023-10-09T08:45:38;100676.47;;;14.71;100.00
11413;BME280;5762;43.256;26.960;2023-10-09T08:48:07;100679.17;;;14.98;100.00
11413;BME280;5762;43.256;26.960;2023-10-09T08:50:36;100681.39;;;15.10;100.00
11413;BME280;5762;43.256;26.960;2023-10-09T08:53:05;100686.88;;;14.83;100.00
11413;BME280;5762;43.256;26.960;2023-10-09T08:55:34;100679.86;;;14.79;100.00
11413;BME280;5762;43.256;26.960;2023-10-09T08:58:05;100687.27;;;14.76;100.00
11413;BME280;5762;43.256;26.960;2023-10-09T09:00:34;100678.59;;;14.88;100.00
11413;BME280;5762;43.256;26.960;2023-10-09T09:03:03;100685.03;;;14.92;100.00
11413;BME280;5762;43.256;26.960;2023-10-09T09:05:33;100682.62;;;14.77;100.00
11413;BME280;5762;43.256;26.960;2023-10-09T09:08:02;100675.96;;;14.69;100.00
11413;BME280;5762;43.256;26.960;2023-10-09T09:10:30;100672.22;;;14.65;100.00
11413;BME280;5762;43.256;26.960;2023-10-09T09:12:59;100677.23;;;14.88;100.00
11413;BME280;5762;43.256;26.960;2023-10-09T09:15:29;100666.00;;;15.03;100.00
11413;BME280;5762;43.256;26.960;2023-10-09T09:18:04;100656.94;;;15.19;100.00
11413;BME280;5762;43.256;26.960;2023-10-09T09:20:39;100652.41;;;15.25;100.00
11413;BME280;5762;43.256;26.960;2023-10-09T09:23:11;100640.63;;;15.16;100.00
11413;BME280;5762;43.256;26.960;2023-10-09T09:25:42;100637.05;;;15.29;100.00
11413;BME280;5762;43.256;26.960;2023-10-09T09:28:14;100627.52;;;15.40;100.00
11413;BME280;5762;43.256;26.960;2023-10-09T09:30:49;100622.80;;;15.32;100.00
11413;BME280;5762;43.256;26.960;2023-10-09T09:33:21;100618.31;;;15.72;100.00
11413;BME280;5762;43.256;26.960;2023-10-09T09:35:57;100605.91;;;15.78;100.00
11413;BME280;5762;43.256;26.960;2023-10-09T09:38:26;100604.91;;;15.85;100.00
11413;BME280;5762;43.256;26.960;2023-10-09T09:40:57;100600.82;;;15.85;100.00
11413;BME280;5762;43.256;26.960;2023-10-09T09:43:26;100596.91;;;15.88;100.00
11413;BME280;5762;43.256;26.960;2023-10-09T09:45:56;100587.94;;;15.96;100.00
11413;BME280;5762;43.256;26.960;2023-10-09T09:48:25;100583.15;;;16.02;100.00
11413;BME280;5762;43.256;26.960;2023-10-09T09:50:54;100581.66;;;16.07;100.00
11413;BME280;5762;43.256;26.960;2023-10-09T09:53:23;100583.47;;;16.00;100.00
11413;BME280;5762;43.256;26.960;2023-10-09T09:55:53;100587.55;;;16.12;100.00
11413;BME280;5762;43.256;26.960;2023-10-09T09:58:25;100591.06;;;16.23;100.00
11413;BME280;5762;43.256;26.960;2023-10-09T10:00:53;100596.77;;;16.24;100.00
11413;BME280;5762;43.256;26.960;2023-10-09T10:03:30;100593.53;;;16.42;100.00
11413;BME280;5762;43.256;26.960;2023-10-09T10:05:58;100588.45;;;16.38;100.00
11413;BME280;5762;43.256;26.960;2023-10-09T10:08:29;100565.64;;;16.42;100.00
11413;BME280;5762;43.256;26.960;2023-10-09T10:11:00;100564.45;;;16.74;100.00
11413;BME280;5762;43.256;26.960;2023-10-09T10:16:16;100561.27;;;16.90;100.00
11413;BME280;5762;43.256;26.960;2023-10-09T10:21:27;100556.75;;;17.02;100.00
11413;BME280;5762;43.256;26.960;2023-10-09T10:23:57;100552.58;;;16.88;100.00
11413;BME280;5762;43.256;26.960;2023-10-09T10:26:25;100544.29;;;16.82;100.00
11413;BME280;5762;43.256;26.960;2023-10-09T10:31:54;100541.93;;;16.40;100.00
11413;BME280;5762;43.256;26.960;2023-10-09T10:34:23;100527.81;;;16.19;100.00
11413;BME280;5762;43.256;26.960;2023-10-09T10:36:52;100519.41;;;16.06;100.00
11413;BME280;5762;43.256;26.960;2023-10-09T10:39:21;100507.26;;;16.21;100.00
11413;BME280;5762;43.256;26.960;2023-10-09T10:41:53;100508.66;;;16.38;100.00
11413;BME280;5762;43.256;26.960;2023-10-09T10:44:30;100496.77;;;16.43;100.00
11413;BME280;5762;43.256;26.960;2023-10-09T10:47:05;100477.50;;;16.48;100.00
11413;BME280;5762;43.256;26.960;2023-10-09T10:49:33;100476.66;;;16.76;100.00
11413;BME280;5762;43.256;26.960;2023-10-09T10:52:05;100474.50;;;16.93;100.00
11413;BME280;5762;43.256;26.960;2023-10-09T10:54:43;100475.86;;;17.33;100.00
11413;BME280;5762;43.256;26.960;2023-10-09T10:57:23;100474.00;;;17.40;100.00
11413;BME280;5762;43.256;26.960;2023-10-09T10:59:48;100471.97;;;17.52;100.00
11413;BME280;5762;43.256;26.960;2023-10-09T11:02:17;100464.81;;;17.13;100.00
11413;BME280;5762;43.256;26.960;2023-10-09T11:04:53;100467.70;;;17.16;100.00
11413;BME280;5762;43.256;26.960;2023-10-09T11:07:22;100460.14;;;17.13;100.00
11413;BME280;5762;43.256;26.960;2023-10-09T11:09:52;100455.84;;;16.95;100.00
11413;BME280;5762;43.256;26.960;2023-10-09T11:15:30;100446.48;;;17.04;100.00
11413;BME280;5762;43.256;26.960;2023-10-09T11:18:02;100438.17;;;17.48;100.00
11413;BME280;5762;43.256;26.960;2023-10-09T11:20:37;100438.62;;;17.58;100.00
11413;BME280;5762;43.256;26.960;2023-10-09T11:23:06;100439.19;;;17.66;100.00
11413;BME280;5762;43.256;26.960;2023-10-09T11:25:41;100435.08;;;17.81;100.00
11413;BME280;5762;43.256;26.960;2023-10-09T11:28:24;100426.01;;;18.04;100.00
11413;BME280;5762;43.256;26.960;2023-10-09T11:31:14;100425.89;;;18.00;100.00
11413;BME280;5762;43.256;26.960;2023-10-09T11:33:45;100424.84;;;17.84;100.00
11413;BME280;5762;43.256;26.960;2023-10-09T11:36:14;100423.23;;;17.83;100.00
11413;BME280;5762;43.256;26.960;2023-10-09T11:38:43;100416.07;;;17.99;100.00
11413;BME280;5762;43.256;26.960;2023-10-09T11:41:13;100405.27;;;18.09;100.00
11413;BME280;5762;43.256;26.960;2023-10-09T11:43:56;100400.88;;;18.02;100.00
11413;BME280;5762;43.256;26.960;2023-10-09T11:46:21;100393.89;;;18.13;100.00
11413;BME280;5762;43.256;26.960;2023-10-09T11:49:07;100374.70;;;18.28;100.00
11413;BME280;5762;43.256;26.960;2023-10-09T11:51:49;100363.30;;;18.32;100.00
11413;BME280;5762;43.256;26.960;2023-10-09T11:54:36;100352.11;;;18.37;100.00
11413;BME280;5762;43.256;26.960;2023-10-09T11:57:05;100342.25;;;18.51;100.00
11413;BME280;5762;43.256;26.960;2023-10-09T11:59:34;100336.53;;;18.50;100.00
11413;BME280;5762;43.256;26.960;2023-10-09T12:02:10;100327.58;;;18.40;100.00
11413;BME280;5762;43.256;26.960;2023-10-09T12:04:35;100321.33;;;18.46;100.00
11413;BME280;5762;43.256;26.960;2023-10-09T12:07:04;100313.88;;;18.40;100.00
11413;BME280;5762;43.256;26.960;2023-10-09T12:09:37;100306.84;;;18.52;100.00
11413;BME280;5762;43.256;26.960;2023-10-09T12:12:06;100301.41;;;18.31;100.00
11413;BME280;5762;43.256;26.960;2023-10-09T12:14:35;100287.53;;;18.48;100.00
11413;BME280;5762;43.256;26.960;2023-10-09T12:17:04;100290.76;;;18.56;100.00
11413;BME280;5762;43.256;26.960;2023-10-09T12:19:33;100279.16;;;18.32;100.00
11413;BME280;5762;43.256;26.960;2023-10-09T12:22:03;100279.38;;;18.60;100.00
11413;BME280;5762;43.256;26.960;2023-10-09T12:24:34;100276.44;;;18.78;100.00
11413;BME280;5762;43.256;26.960;2023-10-09T12:27:04;100271.39;;;18.73;100.00
11413;BME280;5762;43.256;26.960;2023-10-09T12:29:33;100259.52;;;18.63;100.00
11413;BME280;5762;43.256;26.960;2023-10-09T12:32:02;100265.36;;;18.68;100.00
11413;BME280;5762;43.256;26.960;2023-10-09T12:34:31;100259.64;;;18.79;100.00
11413;BME280;5762;43.256;26.960;2023-10-09T12:37:00;100255.44;;;19.06;100.00
11413;BME280;5762;43.256;26.960;2023-10-09T12:39:29;100250.20;;;19.01;100.00
11413;BME280;5762;43.256;26.960;2023-10-09T12:41:57;100257.37;;;18.87;100.00
11413;BME280;5762;43.256;26.960;2023-10-09T12:44:26;100264.13;;;19.08;100.00
11413;BME280;5762;43.256;26.960;2023-10-09T12:46:55;100257.28;;;19.32;100.00
11413;BME280;5762;43.256;26.960;2023-10-09T12:49:24;100249.81;;;19.45;100.00
11413;BME280;5762;43.256;26.960;2023-10-09T12:51:53;100245.58;;;19.48;100.00
11413;BME280;5762;43.256;26.960;2023-10-09T12:54:21;100238.04;;;19.69;100.00
11413;BME280;5762;43.256;26.960;2023-10-09T12:56:56;100237.30;;;19.84;100.00
11413;BME280;5762;43.256;26.960;2023-10-09T12:59:25;100235.57;;;19.86;100.00
11413;BME280;5762;43.256;26.960;2023-10-09T13:01:54;100228.01;;;19.89;100.00
11413;BME280;5762;43.256;26.960;2023-10-09T13:04:26;100218.72;;;19.93;100.00
11413;BME280;5762;43.256;26.960;2023-10-09T13:06:55;100227.52;;;19.59;100.00
11413;BME280;5762;43.256;26.960;2023-10-09T13:09:23;100210.34;;;19.74;100.00
11413;BME280;5762;43.256;26.960;2023-10-09T13:11:52;100214.47;;;19.43;100.00
11413;BME280;5762;43.256;26.960;2023-10-09T13:14:21;100197.36;;;19.22;100.00
11413;BME280;5762;43.256;26.960;2023-10-09T13:16:49;100192.44;;;19.28;100.00
11413;BME280;5762;43.256;26.960;2023-10-09T13:19:19;100188.97;;;19.43;100.00
11413;BME280;5762;43.256;26.960;2023-10-09T13:21:47;100189.87;;;19.65;100.00
11413;BME280;5762;43.256;26.960;2023-10-09T13:24:16;100183.05;;;19.81;100.00
11413;BME280;5762;43.256;26.960;2023-10-09T13:26:45;100172.98;;;19.79;100.00